Terminal Aerodrome Forecast
Issued by NWS

Home | Current Version | Previous Version | Text Only | Print | Product List | Glossary On
Versions: 1 2 3 4 5 6 7 8 9 10 11 12 13
000
FTUS44 KLIX 210800 AAA
TAFMCB
TAF AMD
KMCB 210812Z 2108/2206 13002KT P6SM OVC005
      TEMPO 2110/2113 4SM BR
     FM211500 19006KT P6SM SCT050 BKN090=

USA.gov is the U.S. government's official web portal to all federal, state and local government web resources and services.